Thunder radar more information blitzortung!


Rain radar more information rain snow radar


Besuchen Sie unsere anderen Wetter Stationen:

Template documentation
and downloads

And another site


Sie finden unser Wetter-Infos auch auf:

warn

European Weather Network

WeatherCloud

Weather Underground

AWEKAS

HAMweather, WeatherForYou, PWS Weather

wettercom

Neuwetter

Wetter Netzwerk Deutschland



METAR-Meldungen aus der Umgebung

   
EDDW - Bremen
Aktualisierung: 19-07-2018 07:50
Klar  
Klar  
   Wind: variiert 1.9 km/h
Wind: variiert 1.9 km/h
Temperatur: 17°C
Taupunkt: 14°C
Luftfeuchte: 83%
Luftdruck: 1019 hPa
Sichtbarkeit: More than 10 km
Bewölkung: Klar
EDDW 190550Z VRB01KT CAVOK 17/14 Q1019 NOSIG
EDDT - Berlin
Aktualisierung: 19-07-2018 07:50
Klar  
Klar  
   Wind: WNW 13 km/h
Wind: WNW 13 km/h
Temperatur: 19°C
Taupunkt: 15°C
Luftfeuchte: 78%
Luftdruck: 1016 hPa
Sichtbarkeit: More than 10 km
Bewölkung: Klar
EDDT 190550Z 30007KT 270V360 CAVOK 19/15 Q1016 NOSIG
EDDF - Frankfurt
Aktualisierung: 19-07-2018 07:50
Klar  
Klar  
   Wind: NNO 16.7 km/h
Wind: NNO 16.7 km/h
Temperatur: 20°C
Taupunkt: 10°C
Luftfeuchte: 53%
Luftdruck: 1018 hPa
Sichtbarkeit: More than 10 km
Bewölkung: Klar
EDDF 190550Z 03009KT CAVOK 20/10 Q1018 NOSIG
EDDM - Mnchen
Aktualisierung: 19-07-2018 07:50
Klar  
Klar  
   Wind: variiert 3.7 km/h
Wind: variiert 3.7 km/h
Temperatur: 17°C
Taupunkt: 12°C
Luftfeuchte: 73%
Luftdruck: 1018 hPa
Sichtbarkeit: More than 10 km
Bewölkung: Klar
EDDM 190550Z VRB02KT CAVOK 17/12 Q1018 NOSIG
EDDH - Hamburg
Aktualisierung: 19-07-2018 07:50
Klar  
Klar  
   Wind: NW 13 km/h
Wind: NW 13 km/h
Temperatur: 15°C
Taupunkt: 11°C
Luftfeuchte: 77%
Luftdruck: 1019 hPa
Sichtbarkeit: More than 10 km
Bewölkung: Klar
EDDH 190550Z 32007KT CAVOK 15/11 Q1019 NOSIG
EDDL - Dsseldorf
Aktualisierung: 19-07-2018 07:50
Klar  
Klar  
   Wind: Süden 9.3 km/h
Wind: Süden 9.3 km/h
Temperatur: 19°C
Taupunkt: 12°C
Luftfeuchte: 64%
Luftdruck: 1018 hPa
Sichtbarkeit: More than 10 km
Bewölkung: Klar
EDDL 190550Z 17005KT 130V210 CAVOK 19/12 Q1018 NOSIG

Script entwickelt von  Saratoga-weather.org Angepasst für das Template von  Weerstation Leuven

Von uns verwendete Ausrüstung:

Wetterstation
Davis VP2

Wetterprogramm
Meteobridge

WetterComputer
Asus WL -330N3G

Davis VP2

Meteobridge

Asus WL -330N3G